Time;durP1;ratioP1;P1;durP2;ratioP2;P2;SDS_P1;SDS_P2;PMS_P1;PMS_P2;Temp;Humidity;BMP_temperature;BMP_pressure;BME280_temperature;BME280_humidity;BME280_pressure;Samples;Min_cycle;Max_cycle;Signal;HPM_P1;HPM_P2
2022/05/19 00:02:23;;;;;;;8.90;3.63;;;;;;;9.00;nan;-24068.47;5070981;28;20645;-69
2022/05/19 00:04:49;;;;;;;6.27;3.80;;;;;;;8.93;nan;-24066.34;5071378;28;20240;-69
2022/05/19 00:07:15;;;;;;;7.00;3.93;;;;;;;9.19;nan;-24073.72;5072750;28;20216;-70
2022/05/19 00:09:41;;;;;;;4.47;3.80;;;;;;;9.21;nan;-24074.25;5074901;28;20175;-68
2022/05/19 00:12:16;;;;;;;7.97;4.40;;;;;;;9.17;nan;-24073.13;5074614;28;20213;-67
2022/05/19 00:14:42;;;;;;;7.73;3.93;;;;;;;9.15;nan;-24072.56;5074807;28;20210;-68
2022/05/19 00:17:08;;;;;;;7.07;4.10;;;;;;;9.03;nan;-24069.19;5074497;28;20178;-67
2022/05/19 00:19:34;;;;;;;6.50;4.00;;;;;;;8.85;nan;-24064.22;5074322;28;20216;-67
2022/05/19 00:21:59;;;;;;;7.13;4.20;;;;;;;8.85;nan;-24064.22;5074348;28;20200;-68
2022/05/19 00:24:25;;;;;;;5.23;3.77;;;;;;;8.85;nan;-24064.22;5074426;28;20586;-69
2022/05/19 00:26:50;;;;;;;6.27;3.73;;;;;;;7.97;nan;-24039.72;5073675;28;20170;-67
2022/05/19 00:29:16;;;;;;;6.13;4.00;;;;;;;8.82;nan;-24063.53;5073260;28;20177;-68
2022/05/19 00:31:41;;;;;;;8.00;4.53;;;;;;;9.03;nan;-24069.19;5074661;28;20579;-68
2022/05/19 00:34:07;;;;;;;8.83;4.33;;;;;;;8.80;nan;-24062.94;5074667;28;20194;-68
2022/05/19 00:36:33;;;;;;;6.70;4.03;;;;;;;8.90;nan;-24065.50;5074211;28;20268;-70
2022/05/19 00:38:59;;;;;;;7.17;4.53;;;;;;;8.86;nan;-24064.50;5074794;28;20174;-67
2022/05/19 00:41:24;;;;;;;7.70;4.50;;;;;;;9.13;nan;-24072.00;5074551;28;20262;-68
2022/05/19 00:44:16;;;;;;;7.80;4.10;;;;;;;8.97;nan;-24067.47;5074769;28;20686;-69
2022/05/19 00:46:44;;;;;;;6.50;4.20;;;;;;;8.80;nan;-24062.94;5071124;28;20327;-68
2022/05/19 00:49:16;;;;;;;5.90;3.77;;;;;;;9.01;nan;-24068.75;5074216;28;20174;-65
2022/05/19 00:52:09;;;;;;;7.17;3.83;;;;;;;9.04;nan;-24069.59;5074463;28;20206;-66
2022/05/19 00:54:40;;;;;;;6.63;3.67;;;;;;;8.73;nan;-24060.97;5067667;28;20226;-67
2022/05/19 00:57:12;;;;;;;5.13;3.53;;;;;;;8.83;nan;-24063.81;5074293;28;20167;-67
2022/05/19 01:00:06;;;;;;;7.47;3.83;;;;;;;8.84;nan;-24064.09;5074694;28;20196;-66
2022/05/19 01:02:40;;;;;;;7.60;4.33;;;;;;;8.43;nan;-24052.47;5067597;28;20255;-67
2022/05/19 01:05:17;;;;;;;5.30;3.73;;;;;;;8.66;nan;-24059.00;5074142;28;20185;-69
2022/05/19 01:08:05;;;;;;;4.67;3.17;;;;;;;8.65;nan;-24058.72;5073794;28;20215;-69
2022/05/19 01:10:31;;;;;;;4.07;3.03;;;;;;;8.62;nan;-24057.88;5074313;28;20231;-71
2022/05/19 01:12:58;;;;;;;4.03;2.90;;;;;;;8.47;nan;-24053.63;5073910;28;20257;-69
2022/05/19 01:15:24;;;;;;;5.77;3.03;;;;;;;8.32;nan;-24049.50;5074037;28;20166;-69
2022/05/19 01:17:50;;;;;;;5.43;3.13;;;;;;;8.42;nan;-24052.19;5073457;28;20154;-68
2022/05/19 01:20:20;;;;;;;3.30;2.43;;;;;;;8.08;nan;-24042.56;5073637;28;20166;-69
2022/05/19 01:22:54;;;;;;;2.50;1.97;;;;;;;8.26;nan;-24047.66;5074262;28;20185;-68
2022/05/19 01:25:25;;;;;;;3.03;2.23;;;;;;;8.27;nan;-24047.94;5073984;28;20177;-68
2022/05/19 01:27:51;;;;;;;2.83;2.50;;;;;;;8.33;nan;-24049.66;5072392;28;20166;-70
2022/05/19 01:30:16;;;;;;;3.13;2.50;;;;;;;7.92;nan;-24038.19;5073906;28;20180;-70
2022/05/19 01:32:42;;;;;;;3.17;2.47;;;;;;;7.22;nan;-24018.63;5073077;28;20194;-67
2022/05/19 01:35:08;;;;;;;2.77;2.40;;;;;;;8.06;nan;-24042.00;5073744;28;20170;-68
2022/05/19 01:37:33;;;;;;;2.80;2.40;;;;;;;7.93;nan;-24038.47;5073452;28;20235;-67
2022/05/19 01:40:34;;;;;;;2.73;2.10;;;;;;;7.95;nan;-24039.16;5073890;28;20170;-66
2022/05/19 01:43:34;;;;;;;2.67;2.23;;;;;;;7.51;nan;-24026.69;5048116;28;20178;-69
2022/05/19 01:46:26;;;;;;;3.63;2.47;;;;;;;8.11;nan;-24043.56;5073254;28;20656;-70
2022/05/19 01:49:05;;;;;;;6.77;2.40;;;;;;;7.96;nan;-24039.44;5073310;28;20241;-67
2022/05/19 01:51:33;;;;;;;2.80;2.13;;;;;;;7.80;nan;-24034.78;5071910;28;20253;-68
2022/05/19 01:54:13;;;;;;;2.87;2.50;;;;;;;7.71;nan;-24032.38;5073213;28;20248;-68
2022/05/19 01:56:42;;;;;;;4.77;2.40;;;;;;;7.84;nan;-24036.06;5073035;28;20629;-68
2022/05/19 01:59:24;;;;;;;3.23;2.93;;;;;;;7.69;nan;-24031.66;5073101;28;20712;-69
2022/05/19 02:02:24;;;;;;;4.23;3.00;;;;;;;7.83;nan;-24035.63;5072747;28;20605;-69
2022/05/19 02:05:18;;;;;;;5.33;2.97;;;;;;;7.97;nan;-24039.72;5053083;28;20196;-64
2022/05/19 02:07:46;;;;;;;4.70;3.10;;;;;;;7.86;nan;-24036.47;5044449;28;20211;-65
2022/05/19 02:10:18;;;;;;;4.60;3.20;;;;;;;7.55;nan;-24027.84;5072524;28;20249;-68
2022/05/19 02:12:47;;;;;;;4.13;2.73;;;;;;;7.91;nan;-24038.03;5072903;28;20250;-65
2022/05/19 02:15:17;;;;;;;3.97;3.03;;;;;;;7.89;nan;-24037.31;5072775;28;20184;-66
2022/05/19 02:17:45;;;;;;;4.43;2.93;;;;;;;8.02;nan;-24040.88;5072793;28;20170;-69
2022/05/19 02:20:13;;;;;;;4.73;2.97;;;;;;;7.72;nan;-24032.50;5072661;28;20182;-68
2022/05/19 02:22:45;;;;;;;5.30;2.70;;;;;;;7.83;nan;-24035.78;5072423;28;20228;-67
2022/05/19 02:25:28;;;;;;;3.00;2.70;;;;;;;7.54;nan;-24027.56;5072752;28;20174;-66
2022/05/19 02:28:00;;;;;;;3.30;2.77;;;;;;;7.60;nan;-24029.25;5071105;28;20166;-68
2022/05/19 02:30:28;;;;;;;4.43;3.00;;;;;;;7.47;nan;-24025.72;5072141;28;20547;-67
2022/05/19 02:32:54;;;;;;;3.97;2.87;;;;;;;7.49;nan;-24026.13;5072567;28;20223;-67
2022/05/19 02:35:20;;;;;;;3.20;2.60;;;;;;;7.80;nan;-24034.91;5071988;28;20202;-68
2022/05/19 02:37:46;;;;;;;3.37;2.60;;;;;;;7.90;nan;-24037.63;5072249;28;20170;-67
2022/05/19 02:40:14;;;;;;;4.90;3.00;;;;;;;7.57;nan;-24028.25;5072183;28;20177;-66
2022/05/19 02:42:41;;;;;;;3.13;2.47;;;;;;;7.67;nan;-24031.09;5070855;28;20174;-70
2022/05/19 02:45:07;;;;;;;3.33;2.87;;;;;;;7.76;nan;-24033.66;5071930;28;20176;-67
2022/05/19 02:47:32;;;;;;;2.57;2.20;;;;;;;7.65;nan;-24030.66;5072108;28;20162;-68
2022/05/19 02:49:59;;;;;;;3.80;2.70;;;;;;;7.71;nan;-24032.38;5072153;28;20188;-67
2022/05/19 02:52:24;;;;;;;3.03;2.60;;;;;;;7.79;nan;-24034.63;5072346;28;20201;-67
2022/05/19 02:54:49;;;;;;;5.47;2.97;;;;;;;7.89;nan;-24037.31;5071800;28;20224;-67
2022/05/19 02:57:15;;;;;;;3.67;2.33;;;;;;;8.04;nan;-24041.44;5071863;28;20178;-67
2022/05/19 02:59:40;;;;;;;3.43;2.50;;;;;;;8.09;nan;-24043.00;5071844;28;20182;-69
2022/05/19 03:02:06;;;;;;;2.73;2.30;;;;;;;7.83;nan;-24035.63;5071965;28;20174;-69
2022/05/19 03:04:31;;;;;;;3.43;2.60;;;;;;;7.95;nan;-24039.16;5071945;28;20265;-67
2022/05/19 03:06:57;;;;;;;3.20;2.60;;;;;;;8.38;nan;-24051.22;5072122;28;20158;-67
2022/05/19 03:09:22;;;;;;;4.27;2.63;;;;;;;8.58;nan;-24056.59;5072322;28;20223;-67
2022/05/19 03:11:48;;;;;;;3.57;2.70;;;;;;;9.11;nan;-24071.59;5072053;28;20197;-66
2022/05/19 03:14:13;;;;;;;4.33;2.57;;;;;;;9.71;nan;-24088.41;5071838;28;20230;-65
2022/05/19 03:16:40;;;;;;;3.47;2.23;;;;;;;10.10;nan;-24099.13;5071817;28;20174;-67
2022/05/19 03:19:06;;;;;;;3.90;2.50;;;;;;;10.72;nan;-24116.50;5071448;28;20178;-69
2022/05/19 03:21:31;;;;;;;3.47;2.30;;;;;;;11.56;nan;-24139.75;5070089;28;20656;-68
2022/05/19 03:23:57;;;;;;;2.43;2.20;;;;;;;12.13;nan;-24155.81;5075868;28;20237;-70
2022/05/19 03:26:22;;;;;;;2.63;2.23;;;;;;;12.62;nan;-24169.31;5075665;28;20629;-67
2022/05/19 03:28:47;;;;;;;3.80;2.50;;;;;;;13.68;nan;-24198.84;5075678;28;20250;-68
2022/05/19 03:31:13;;;;;;;3.45;2.55;;;;;;;14.61;nan;-24224.66;5073646;28;20208;-69
2022/05/19 03:33:39;;;;;;;2.83;2.50;;;;;;;15.26;nan;-24242.72;5076163;28;20238;-67
2022/05/19 03:36:05;;;;;;;3.45;2.10;;;;;;;15.95;nan;-24261.63;5076447;28;20194;-69
2022/05/19 03:38:30;;;;;;;4.45;2.38;;;;;;;16.30;nan;-24271.56;5075036;28;20767;-67
2022/05/19 03:40:56;;;;;;;3.80;2.17;;;;;;;16.19;nan;-24268.34;5079172;28;20181;-68
2022/05/19 03:43:21;;;;;;;3.03;2.40;;;;;;;17.49;nan;-24304.38;5078966;28;20165;-67
2022/05/19 03:45:47;;;;;;;3.45;2.20;;;;;;;17.98;nan;-24317.78;5080664;28;20208;-66
2022/05/19 03:48:13;;;;;;;2.70;2.08;;;;;;;18.29;nan;-24326.41;5078627;28;20181;-66
2022/05/19 03:50:44;;;;;;;2.60;2.00;;;;;;;18.72;nan;-24338.25;5079476;28;20259;-67
2022/05/19 03:53:09;;;;;;;4.00;2.47;;;;;;;19.03;nan;-24346.63;5079852;28;20259;-69
2022/05/19 03:55:35;;;;;;;2.50;2.08;;;;;;;19.63;nan;-24363.16;5078068;28;20230;-68
2022/05/19 03:58:00;;;;;;;3.90;2.10;;;;;;;20.02;nan;-24374.00;5079555;28;20179;-67
2022/05/19 04:00:26;;;;;;;2.75;1.90;;;;;;;19.91;nan;-24370.81;5077787;28;20174;-66
2022/05/19 04:02:51;;;;;;;2.25;1.85;;;;;;;20.51;nan;-24387.34;5079477;28;20210;-68
2022/05/19 04:05:17;;;;;;;2.83;1.95;;;;;;;20.95;nan;-24399.56;5080496;28;20656;-66
2022/05/19 04:07:43;;;;;;;2.90;1.77;;;;;;;21.07;nan;-24402.88;5080256;28;20174;-69
2022/05/19 04:10:10;;;;;;;1.67;1.48;;;;;;;21.22;nan;-24406.91;5080498;28;20255;-67
2022/05/19 04:12:36;;;;;;;2.20;1.70;;;;;;;21.57;nan;-24416.63;5079510;28;20212;-69
2022/05/19 04:15:04;;;;;;;2.55;1.77;;;;;;;22.25;nan;-24435.16;5079519;28;20727;-68
2022/05/19 04:17:33;;;;;;;2.90;2.00;;;;;;;22.25;nan;-24435.03;5079199;28;20178;-69
2022/05/19 04:20:00;;;;;;;2.78;1.75;;;;;;;22.33;nan;-24437.25;5079742;28;20177;-68
2022/05/19 04:22:25;;;;;;;2.85;1.50;;;;;;;22.54;nan;-24443.06;5080074;28;20221;-68
2022/05/19 04:24:51;;;;;;;4.20;1.70;;;;;;;22.40;nan;-24439.19;5078918;28;20702;-68
2022/05/19 04:27:16;;;;;;;3.10;1.80;;;;;;;22.16;nan;-24432.69;5079153;28;20227;-68
2022/05/19 04:29:42;;;;;;;2.70;1.80;;;;;;;21.95;nan;-24427.00;5079357;28;20185;-69
2022/05/19 04:32:08;;;;;;;2.15;1.67;;;;;;;20.91;nan;-24398.31;5076425;28;20243;-68
2022/05/19 04:34:33;;;;;;;2.05;1.60;;;;;;;20.40;nan;-24384.44;5085219;28;20182;-68
2022/05/19 04:36:58;;;;;;;2.05;1.50;;;;;;;20.16;nan;-24377.91;5077928;28;20181;-67
2022/05/19 04:39:24;;;;;;;1.75;1.45;;;;;;;20.21;nan;-24379.16;5079547;28;20181;-68
2022/05/19 04:41:49;;;;;;;2.53;1.85;;;;;;;20.14;nan;-24377.22;5077851;28;20648;-68
2022/05/19 04:44:18;;;;;;;2.53;1.60;;;;;;;20.04;nan;-24374.56;5074421;28;20177;-68
2022/05/19 04:46:43;;;;;;;2.55;1.70;;;;;;;18.51;nan;-24332.41;5074356;28;20261;-68
2022/05/19 04:49:08;;;;;;;2.53;1.83;;;;;;;17.90;nan;-24315.53;5074843;28;20253;-67
2022/05/19 04:51:34;;;;;;;2.35;1.60;;;;;;;17.13;nan;-24294.34;5072085;28;20189;-67
2022/05/19 04:53:59;;;;;;;2.67;1.88;;;;;;;17.17;nan;-24295.59;5073780;28;20222;-67
2022/05/19 04:56:25;;;;;;;2.40;1.80;;;;;;;16.04;nan;-24264.16;5072711;28;20268;-66
2022/05/19 04:58:50;;;;;;;1.67;1.58;;;;;;;15.21;nan;-24241.19;5073400;28;20280;-66
2022/05/19 05:01:15;;;;;;;2.25;1.90;;;;;;;15.61;nan;-24252.41;5073486;28;20303;-65
2022/05/19 05:03:41;;;;;;;1.85;1.67;;;;;;;15.74;nan;-24256.03;5073527;28;20170;-67
2022/05/19 05:06:06;;;;;;;2.65;1.98;;;;;;;16.55;nan;-24278.41;5073116;28;20625;-67
2022/05/19 05:08:32;;;;;;;1.90;1.63;;;;;;;16.86;nan;-24286.94;5073563;28;20174;-65
2022/05/19 05:10:57;;;;;;;1.92;1.73;;;;;;;16.20;nan;-24268.75;5073131;28;20277;-67
2022/05/19 05:13:22;;;;;;;2.00;1.80;;;;;;;15.67;nan;-24253.94;5073139;28;20173;-67
2022/05/19 05:15:48;;;;;;;2.08;1.60;;;;;;;16.42;nan;-24274.63;5072790;28;20170;-69
2022/05/19 05:18:14;;;;;;;2.58;1.60;;;;;;;16.04;nan;-24264.28;5073053;28;20181;-66
2022/05/19 05:20:42;;;;;;;3.65;1.70;;;;;;;15.72;nan;-24255.47;5071933;28;20188;-68
2022/05/19 05:23:08;;;;;;;4.13;1.80;;;;;;;16.11;nan;-24266.09;5072704;28;20182;-67
2022/05/19 05:25:34;;;;;;;1.83;1.60;;;;;;;16.31;nan;-24271.69;5072882;28;20185;-66
2022/05/19 05:28:00;;;;;;;1.83;1.70;;;;;;;16.27;nan;-24270.59;5071387;28;20177;-67
2022/05/19 05:30:26;;;;;;;3.33;1.42;;;;;;;15.29;nan;-24243.44;5072861;28;20182;-70
2022/05/19 05:32:52;;;;;;;2.83;1.98;;;;;;;14.98;nan;-24235.03;5072428;28;20190;-69
2022/05/19 05:35:17;;;;;;;1.55;1.45;;;;;;;14.64;nan;-24225.34;5072814;28;20178;-69
2022/05/19 05:37:43;;;;;;;2.42;1.67;;;;;;;14.67;nan;-24226.34;5072652;28;20178;-69
2022/05/19 05:40:13;;;;;;;3.45;1.92;;;;;;;14.30;nan;-24215.94;5072996;28;20189;-66
2022/05/19 05:42:39;;;;;;;2.65;2.15;;;;;;;14.00;nan;-24207.81;5072645;28;20327;-68
2022/05/19 05:45:07;;;;;;;2.75;1.50;;;;;;;14.05;nan;-24209.09;5072195;28;20170;-69
2022/05/19 05:47:33;;;;;;;3.08;1.90;;;;;;;14.11;nan;-24210.75;5071160;28;20170;-68
2022/05/19 05:49:58;;;;;;;1.60;1.50;;;;;;;14.26;nan;-24214.84;5071849;28;20490;-69
2022/05/19 05:52:25;;;;;;;2.13;1.83;;;;;;;14.18;nan;-24212.59;5071806;28;20562;-69
2022/05/19 05:54:50;;;;;;;1.77;1.55;;;;;;;14.53;nan;-24222.41;5072002;28;20217;-68
2022/05/19 05:57:17;;;;;;;3.97;1.70;;;;;;;14.27;nan;-24215.25;5070075;28;20311;-66
2022/05/19 05:59:42;;;;;;;2.45;1.85;;;;;;;14.26;nan;-24214.97;5073167;28;20257;-68
2022/05/19 06:02:07;;;;;;;2.28;1.70;;;;;;;14.46;nan;-24220.44;5071621;28;20587;-68
2022/05/19 06:04:33;;;;;;;1.98;1.63;;;;;;;14.24;nan;-24214.28;5071912;28;20182;-75
2022/05/19 06:06:59;;;;;;;1.65;1.55;;;;;;;14.27;nan;-24215.13;5072022;28;20166;-77
2022/05/19 06:09:25;;;;;;;2.22;1.60;;;;;;;14.30;nan;-24215.94;5074463;28;20269;-78
2022/05/19 06:11:51;;;;;;;1.92;1.70;;;;;;;14.31;nan;-24216.38;5073911;28;20193;-76
2022/05/19 06:14:17;;;;;;;3.22;2.03;;;;;;;14.41;nan;-24219.03;5072090;28;20198;-75
2022/05/19 06:16:43;;;;;;;1.52;1.42;;;;;;;14.57;nan;-24223.53;5071974;28;20261;-77
2022/05/19 06:19:09;;;;;;;2.55;2.10;;;;;;;14.58;nan;-24223.94;5070871;28;20562;-74
2022/05/19 06:21:36;;;;;;;2.10;1.90;;;;;;;14.50;nan;-24221.56;5071365;28;20173;-79
2022/05/19 06:24:08;;;;;;;1.70;1.60;;;;;;;14.66;nan;-24226.06;5071582;28;20219;-76
2022/05/19 06:26:39;;;;;;;1.73;1.52;;;;;;;15.09;nan;-24237.81;5071377;28;20174;-76
2022/05/19 06:29:06;;;;;;;2.28;1.80;;;;;;;15.13;nan;-24238.94;5071590;28;20185;-77
2022/05/19 06:31:32;;;;;;;1.98;1.52;;;;;;;15.52;nan;-24249.88;5070256;28;20204;-79
2022/05/19 06:33:58;;;;;;;1.65;1.55;;;;;;;15.41;nan;-24246.78;5070239;28;20225;-77
2022/05/19 06:36:24;;;;;;;2.35;2.15;;;;;;;15.58;nan;-24251.41;5071334;28;20174;-78
2022/05/19 06:38:49;;;;;;;2.22;1.60;;;;;;;15.28;nan;-24243.16;5073451;28;20541;-78
2022/05/19 06:43:58;;;;;;;2.17;1.60;;;;;;;15.49;nan;-24249.03;5071982;28;20360;-78
2022/05/19 06:46:24;;;;;;;2.30;1.50;;;;;;;15.58;nan;-24251.56;5071821;28;20162;-79
2022/05/19 06:48:49;;;;;;;1.48;1.38;;;;;;;15.74;nan;-24256.03;5071963;28;20158;-77
2022/05/19 06:51:15;;;;;;;1.52;1.40;;;;;;;15.80;nan;-24257.72;5071450;28;20278;-80
2022/05/19 06:53:41;;;;;;;1.60;1.50;;;;;;;15.98;nan;-24262.47;5071661;28;20223;-76
2022/05/19 06:56:08;;;;;;;1.60;1.30;;;;;;;15.83;nan;-24258.56;5072025;28;20174;-76
2022/05/19 06:58:34;;;;;;;1.48;1.38;;;;;;;15.79;nan;-24257.44;5073655;28;20669;-77
2022/05/19 07:01:00;;;;;;;1.60;1.50;;;;;;;15.98;nan;-24262.47;5073560;28;20236;-73
2022/05/19 07:03:26;;;;;;;1.58;1.45;;;;;;;16.30;nan;-24271.56;5077475;28;20192;-76
2022/05/19 07:05:51;;;;;;;1.80;1.55;;;;;;;16.08;nan;-24265.41;5071784;28;20173;-72
2022/05/19 07:08:16;;;;;;;1.92;1.50;;;;;;;16.52;nan;-24277.56;5071215;28;20166;-77
2022/05/19 07:10:42;;;;;;;1.85;1.63;;;;;;;16.53;nan;-24277.84;5072533;28;20675;-75
2022/05/19 07:13:08;;;;;;;1.92;1.38;;;;;;;16.73;nan;-24283.31;5071651;28;20166;-77
2022/05/19 07:15:34;;;;;;;6.43;1.48;;;;;;;16.97;nan;-24289.88;5071410;28;20176;-78
2022/05/19 07:17:59;;;;;;;2.65;1.50;;;;;;;16.71;nan;-24282.88;5072026;28;20174;-78
2022/05/19 07:23:11;;;;;;;1.50;1.40;;;;;;;17.08;nan;-24293.09;5073573;28;20384;-76
2022/05/19 07:25:37;;;;;;;2.05;1.60;;;;;;;17.15;nan;-24295.03;5074327;28;20242;-73
2022/05/19 07:28:02;;;;;;;1.63;1.50;;;;;;;16.95;nan;-24289.31;5072176;28;20257;-80
2022/05/19 07:30:28;;;;;;;3.95;1.60;;;;;;;17.12;nan;-24294.19;5072261;28;20170;-84
2022/05/19 07:32:54;;;;;;;1.30;1.20;;;;;;;17.31;nan;-24299.22;5071724;28;20243;-75
2022/05/19 07:35:21;;;;;;;1.30;1.20;;;;;;;17.57;nan;-24306.63;5070496;28;20542;-72
2022/05/19 07:37:46;;;;;;;2.08;1.58;;;;;;;17.43;nan;-24302.72;5071869;28;20186;-74
2022/05/19 07:40:13;;;;;;;1.83;1.55;;;;;;;17.35;nan;-24300.47;5071206;28;20290;-79
2022/05/19 07:42:38;;;;;;;1.40;1.30;;;;;;;17.43;nan;-24302.56;5071894;28;20268;-73
2022/05/19 07:45:05;;;;;;;1.95;1.30;;;;;;;17.51;nan;-24304.94;5071676;28;20626;-80
2022/05/19 07:47:31;;;;;;;2.05;1.58;;;;;;;17.93;nan;-24316.53;5071492;28;20249;-75
2022/05/19 07:49:57;;;;;;;1.40;1.30;;;;;;;18.20;nan;-24323.78;5072003;28;20173;-81
2022/05/19 07:52:23;;;;;;;1.55;1.27;;;;;;;17.96;nan;-24317.22;5070304;28;20285;-72
2022/05/19 07:54:48;;;;;;;1.45;1.30;;;;;;;17.97;nan;-24317.50;5069471;28;20582;-79
2022/05/19 07:57:14;;;;;;;1.33;1.17;;;;;;;18.33;nan;-24327.53;5070137;28;20178;-75
2022/05/19 07:59:40;;;;;;;2.30;1.70;;;;;;;18.38;nan;-24328.94;5070822;28;20272;-80
2022/05/19 08:02:07;;;;;;;1.45;1.10;;;;;;;18.53;nan;-24333.13;5080285;28;20170;-73
2022/05/19 08:04:33;;;;;;;1.48;1.38;;;;;;;18.29;nan;-24326.28;5081691;28;20216;-71
2022/05/19 08:06:59;;;;;;;2.15;1.42;;;;;;;18.40;nan;-24329.47;5075781;28;20169;-78
2022/05/19 08:12:16;;;;;;;4.47;1.60;;;;;;;18.60;nan;-24334.91;5071229;28;20259;-76
2022/05/19 08:17:25;;;;;;;1.38;1.17;;;;;;;18.87;nan;-24342.31;5071344;28;20277;-76
2022/05/19 08:19:50;;;;;;;1.55;1.40;;;;;;;18.85;nan;-24341.88;5069693;28;20688;-75
2022/05/19 08:22:16;;;;;;;1.40;1.20;;;;;;;18.60;nan;-24334.78;5070250;28;20177;-75
2022/05/19 08:24:46;;;;;;;1.60;1.50;;;;;;;19.00;nan;-24345.91;5070755;28;20249;-76
2022/05/19 08:27:12;;;;;;;1.75;1.30;;;;;;;19.04;nan;-24347.03;5070874;28;20617;-76
2022/05/19 08:29:37;;;;;;;1.83;1.50;;;;;;;19.36;nan;-24355.94;5074498;28;20235;-75
2022/05/19 08:32:04;;;;;;;2.00;1.25;;;;;;;19.41;nan;-24357.34;5074596;28;20201;-76
2022/05/19 08:34:29;;;;;;;1.50;1.30;;;;;;;19.25;nan;-24352.88;5074527;28;20166;-73
2022/05/19 08:36:55;;;;;;;1.60;1.30;;;;;;;19.43;nan;-24357.75;5074479;28;20159;-80
2022/05/19 08:39:21;;;;;;;1.60;1.33;;;;;;;19.52;nan;-24360.13;5073865;28;20544;-79
2022/05/19 08:41:54;;;;;;;3.33;1.50;;;;;;;19.70;nan;-24365.13;5073773;28;20174;-73
2022/05/19 08:44:25;;;;;;;1.20;1.10;;;;;;;19.84;nan;-24369.16;5074186;28;20239;-80
2022/05/19 08:46:53;;;;;;;1.45;1.35;;;;;;;19.82;nan;-24368.59;5073004;28;20209;-74
2022/05/19 08:49:39;;;;;;;1.20;1.10;;;;;;;19.97;nan;-24372.63;5073864;28;20182;-74
2022/05/19 08:52:16;;;;;;;1.55;1.20;;;;;;;20.17;nan;-24378.19;5073979;28;20186;-74
2022/05/19 08:54:47;;;;;;;1.20;1.02;;;;;;;20.22;nan;-24379.56;5073916;28;20229;-77
2022/05/19 08:57:20;;;;;;;1.20;1.10;;;;;;;20.20;nan;-24378.88;5071134;28;20629;-75
2022/05/19 09:00:05;;;;;;;1.50;1.10;;;;;;;20.06;nan;-24375.00;5072376;28;20261;-78
2022/05/19 09:02:51;;;;;;;1.42;1.17;;;;;;;20.31;nan;-24381.94;5072463;28;20196;-75
2022/05/19 09:05:33;;;;;;;1.88;1.20;;;;;;;20.41;nan;-24384.72;5073854;28;20518;-77
2022/05/19 09:08:24;;;;;;;2.05;1.20;;;;;;;20.45;nan;-24385.69;5073930;28;20162;-77
2022/05/19 09:10:59;;;;;;;1.33;1.20;;;;;;;20.37;nan;-24383.59;5071864;28;20205;-75
2022/05/19 09:13:53;;;;;;;1.40;1.30;;;;;;;20.46;nan;-24385.97;5073087;28;20257;-80
2022/05/19 09:16:25;;;;;;;1.20;1.10;;;;;;;20.59;nan;-24389.56;5071879;28;20174;-79
2022/05/19 09:19:11;;;;;;;2.22;1.45;;;;;;;21.02;nan;-24401.34;5071817;28;20174;-81
2022/05/19 09:21:40;;;;;;;1.35;1.25;;;;;;;21.25;nan;-24407.59;5073213;28;20249;-74
2022/05/19 09:24:05;;;;;;;2.78;1.30;;;;;;;20.96;nan;-24399.69;5072074;28;20170;-76
2022/05/19 09:26:55;;;;;;;1.20;1.10;;;;;;;21.20;nan;-24406.34;5072935;28;20673;-79
2022/05/19 09:29:45;;;;;;;1.92;1.33;;;;;;;21.02;nan;-24401.34;5063298;28;20194;-78
2022/05/19 09:32:18;;;;;;;1.55;1.35;;;;;;;21.17;nan;-24405.38;5073938;28;20225;-75
2022/05/19 09:34:50;;;;;;;1.20;1.10;;;;;;;20.97;nan;-24400.13;5073749;28;20227;-78
2022/05/19 09:37:29;;;;;;;1.33;1.20;;;;;;;21.13;nan;-24404.56;5072744;28;20167;-81
2022/05/19 09:40:14;;;;;;;1.35;1.20;;;;;;;21.02;nan;-24401.50;5073137;28;20177;-76
2022/05/19 09:42:55;;;;;;;1.23;1.10;;;;;;;21.55;nan;-24415.91;5071717;28;20255;-74
2022/05/19 09:45:24;;;;;;;1.25;1.15;;;;;;;21.45;nan;-24413.16;5071581;28;20184;-74
2022/05/19 09:47:57;;;;;;;2.45;1.27;;;;;;;21.61;nan;-24417.59;5070843;28;20281;-70
2022/05/19 09:50:27;;;;;;;1.27;1.10;;;;;;;21.47;nan;-24413.69;5073192;28;20659;-80
2022/05/19 09:53:07;;;;;;;1.85;1.30;;;;;;;20.99;nan;-24400.53;5071594;28;20209;-74
2022/05/19 09:55:39;;;;;;;1.98;1.30;;;;;;;21.71;nan;-24420.34;5071076;28;20225;-77
2022/05/19 09:58:09;;;;;;;1.60;1.27;;;;;;;21.34;nan;-24410.09;5072764;28;20170;-78
2022/05/19 10:00:52;;;;;;;1.63;1.42;;;;;;;21.51;nan;-24414.81;5071449;28;20213;-72
2022/05/19 10:03:24;;;;;;;1.88;1.30;;;;;;;21.57;nan;-24416.47;5072945;28;20174;-75
2022/05/19 10:05:54;;;;;;;1.65;1.17;;;;;;;21.55;nan;-24416.06;5073228;28;20272;-77
2022/05/19 10:08:41;;;;;;;2.30;1.40;;;;;;;21.38;nan;-24411.34;5071650;28;20268;-82
2022/05/19 10:11:13;;;;;;;1.63;1.20;;;;;;;21.42;nan;-24412.31;5072899;28;20292;-73
2022/05/19 10:13:46;;;;;;;1.52;1.35;;;;;;;21.68;nan;-24419.53;5071532;28;20762;-79
2022/05/19 10:16:53;;;;;;;1.30;1.20;;;;;;;21.79;nan;-24422.44;5072807;28;20173;-76
2022/05/19 10:19:24;;;;;;;2.05;1.40;;;;;;;21.76;nan;-24421.75;5073098;28;20245;-75
2022/05/19 10:22:17;;;;;;;1.23;1.13;;;;;;;21.53;nan;-24415.38;5072465;28;20170;-78
2022/05/19 10:24:52;;;;;;;1.40;1.30;;;;;;;21.80;nan;-24422.84;5071568;28;20173;-73
2022/05/19 10:31:13;;;;;;;1.33;1.20;;;;;;;21.89;nan;-24425.34;5072204;28;20168;-79
2022/05/19 10:33:47;;;;;;;1.48;1.25;;;;;;;21.99;nan;-24427.97;5010427;28;20279;-77
2022/05/19 10:36:17;;;;;;;1.40;1.27;;;;;;;21.75;nan;-24421.31;5059398;28;20192;-76
2022/05/19 10:39:04;;;;;;;1.48;1.35;;;;;;;21.85;nan;-24424.09;5072140;28;20249;-73
2022/05/19 10:41:39;;;;;;;2.63;1.38;;;;;;;21.78;nan;-24422.28;5072976;28;20166;-76
2022/05/19 10:44:12;;;;;;;1.95;1.35;;;;;;;22.09;nan;-24430.75;5071135;28;20208;-76
2022/05/19 10:46:58;;;;;;;2.08;1.33;;;;;;;21.66;nan;-24418.97;5071869;28;20174;-82
2022/05/19 10:49:43;;;;;;;1.55;1.33;;;;;;;22.28;nan;-24436.00;5071309;28;20167;-75
2022/05/19 10:52:33;;;;;;;1.73;1.35;;;;;;;22.26;nan;-24435.44;5071978;28;20206;-75
2022/05/19 10:55:22;;;;;;;1.75;1.40;;;;;;;22.28;nan;-24435.88;5071993;28;20623;-75
2022/05/19 10:57:58;;;;;;;1.20;1.10;;;;;;;22.25;nan;-24435.03;5071360;28;20493;-79
2022/05/19 11:00:44;;;;;;;1.63;1.52;;;;;;;22.42;nan;-24439.75;5070967;28;20542;-78
2022/05/19 11:03:40;;;;;;;1.75;1.35;;;;;;;22.26;nan;-24435.31;5072313;28;20182;-81
2022/05/19 11:06:29;;;;;;;2.78;1.35;;;;;;;21.95;nan;-24427.00;5071094;28;20228;-72
2022/05/19 11:09:15;;;;;;;2.38;1.70;;;;;;;22.28;nan;-24435.88;5070592;28;20648;-74
2022/05/19 11:11:43;;;;;;;1.55;1.30;;;;;;;22.23;nan;-24434.47;5070534;28;20193;-74
2022/05/19 11:14:41;;;;;;;1.30;1.20;;;;;;;21.97;nan;-24427.56;5072246;28;20669;-74
2022/05/19 11:17:16;;;;;;;2.05;1.27;;;;;;;22.16;nan;-24432.53;5070508;28;20174;-77
2022/05/19 11:20:00;;;;;;;2.00;1.58;;;;;;;22.10;nan;-24430.88;5071922;28;20169;-83
2022/05/19 11:22:32;;;;;;;1.65;1.25;;;;;;;22.47;nan;-24441.25;5072054;28;20248;-75
2022/05/19 11:28:00;;;;;;;1.98;1.50;;;;;;;22.27;nan;-24435.59;5072077;28;20241;-77
2022/05/19 11:30:32;;;;;;;2.70;1.40;;;;;;;22.25;nan;-24435.03;5071745;28;20166;-80
2022/05/19 11:33:02;;;;;;;1.30;1.20;;;;;;;22.50;nan;-24441.94;5070414;28;20715;-78
2022/05/19 11:35:51;;;;;;;1.55;1.30;;;;;;;22.71;nan;-24447.63;5070889;28;20181;-78
2022/05/19 11:38:31;;;;;;;2.00;1.52;;;;;;;22.73;nan;-24448.31;5071009;28;20185;-76
2022/05/19 11:41:04;;;;;;;1.50;1.40;;;;;;;22.83;nan;-24450.94;5074746;28;20166;-72
2022/05/19 11:43:39;;;;;;;1.50;1.40;;;;;;;22.61;nan;-24445.00;5074553;28;20766;-72
2022/05/19 11:46:29;;;;;;;1.45;1.30;;;;;;;22.64;nan;-24445.69;5070675;28;20252;-75
2022/05/19 11:57:45;;;;;;;3.10;1.98;;;;;;;22.75;nan;-24448.88;5070218;28;20549;-71
2022/05/19 12:00:11;;;;;;;1.42;1.23;;;;;;;22.52;nan;-24442.50;5071740;28;20318;-72
2022/05/19 12:02:40;;;;;;;1.50;1.40;;;;;;;23.04;nan;-24456.75;5075253;28;20174;-70
2022/05/19 12:05:12;;;;;;;1.50;1.20;;;;;;;22.74;nan;-24448.44;5074724;28;20562;-70
2022/05/19 12:08:23;;;;;;;1.92;1.33;;;;;;;23.11;nan;-24458.69;5075147;28;20170;-71
2022/05/19 12:11:08;;;;;;;2.78;1.23;;;;;;;23.05;nan;-24456.88;5060027;28;20220;-69
2022/05/19 12:13:36;;;;;;;1.77;1.30;;;;;;;22.77;nan;-24449.41;5074991;28;20154;-71
2022/05/19 12:16:10;;;;;;;1.42;1.30;;;;;;;22.76;nan;-24449.16;5074808;28;20174;-71
2022/05/19 12:18:43;;;;;;;1.85;1.23;;;;;;;22.99;nan;-24455.22;5074366;28;20204;-70
2022/05/19 12:21:09;;;;;;;1.75;1.40;;;;;;;23.17;nan;-24460.19;5075102;28;20174;-70
2022/05/19 12:23:34;;;;;;;1.27;1.10;;;;;;;23.35;nan;-24465.19;5074727;28;20231;-71
2022/05/19 12:26:11;;;;;;;1.92;1.40;;;;;;;23.51;nan;-24469.59;5073550;28;20173;-71
2022/05/19 12:28:49;;;;;;;2.30;1.73;;;;;;;23.46;nan;-24468.22;5073500;28;20178;-71